sensor_id;sensor_type;location;lat;lon;timestamp;temperature;humidity
2997;DHT22;1508;48.744;9.110;2022-10-04T00:03:36;7.40;99.90
2997;DHT22;1508;48.744;9.110;2022-10-04T00:06:24;7.30;99.90
2997;DHT22;1508;48.744;9.110;2022-10-04T00:09:16;7.30;99.90
2997;DHT22;1508;48.744;9.110;2022-10-04T00:12:05;7.20;99.90
2997;DHT22;1508;48.744;9.110;2022-10-04T00:14:53;7.20;99.90
2997;DHT22;1508;48.744;9.110;2022-10-04T00:17:40;7.20;99.90
2997;DHT22;1508;48.744;9.110;2022-10-04T00:29:29;7.20;99.90
2997;DHT22;1508;48.744;9.110;2022-10-04T00:38:15;7.20;99.90
2997;DHT22;1508;48.744;9.110;2022-10-04T00:41:04;7.20;99.90
2997;DHT22;1508;48.744;9.110;2022-10-04T00:43:51;7.20;99.90
2997;DHT22;1508;48.744;9.110;2022-10-04T00:46:39;7.20;99.90
2997;DHT22;1508;48.744;9.110;2022-10-04T00:49:32;7.10;99.90
2997;DHT22;1508;48.744;9.110;2022-10-04T00:52:24;7.10;99.90
2997;DHT22;1508;48.744;9.110;2022-10-04T00:55:32;7.10;99.90
2997;DHT22;1508;48.744;9.110;2022-10-04T00:58:24;7.10;99.90
2997;DHT22;1508;48.744;9.110;2022-10-04T01:01:11;7.10;99.90
2997;DHT22;1508;48.744;9.110;2022-10-04T01:03:59;7.00;99.90
2997;DHT22;1508;48.744;9.110;2022-10-04T01:06:47;7.00;99.90
2997;DHT22;1508;48.744;9.110;2022-10-04T01:09:40;7.00;99.90
2997;DHT22;1508;48.744;9.110;2022-10-04T01:12:42;7.00;99.90
2997;DHT22;1508;48.744;9.110;2022-10-04T01:16:13;6.90;99.90
2997;DHT22;1508;48.744;9.110;2022-10-04T01:18:39;6.90;99.90
2997;DHT22;1508;48.744;9.110;2022-10-04T01:21:27;7.00;99.90
2997;DHT22;1508;48.744;9.110;2022-10-04T01:24:16;7.00;99.90
2997;DHT22;1508;48.744;9.110;2022-10-04T01:27:02;6.90;99.90
2997;DHT22;1508;48.744;9.110;2022-10-04T01:29:49;7.00;99.90
2997;DHT22;1508;48.744;9.110;2022-10-04T01:32:36;7.00;99.90
2997;DHT22;1508;48.744;9.110;2022-10-04T01:35:22;6.90;99.90
2997;DHT22;1508;48.744;9.110;2022-10-04T01:38:08;6.90;99.90
2997;DHT22;1508;48.744;9.110;2022-10-04T01:40:56;6.90;99.90
2997;DHT22;1508;48.744;9.110;2022-10-04T01:43:47;6.90;99.90
2997;DHT22;1508;48.744;9.110;2022-10-04T01:46:36;6.80;99.90
2997;DHT22;1508;48.744;9.110;2022-10-04T01:49:27;6.80;99.90
2997;DHT22;1508;48.744;9.110;2022-10-04T01:52:29;6.70;99.90
2997;DHT22;1508;48.744;9.110;2022-10-04T01:55:20;6.70;99.90
2997;DHT22;1508;48.744;9.110;2022-10-04T01:58:16;6.70;99.90
2997;DHT22;1508;48.744;9.110;2022-10-04T02:01:18;6.70;99.90
2997;DHT22;1508;48.744;9.110;2022-10-04T02:04:11;6.70;99.90
2997;DHT22;1508;48.744;9.110;2022-10-04T02:07:01;6.70;99.90
2997;DHT22;1508;48.744;9.110;2022-10-04T02:09:49;6.60;99.90
2997;DHT22;1508;48.744;9.110;2022-10-04T02:12:44;6.70;99.90
2997;DHT22;1508;48.744;9.110;2022-10-04T02:15:31;6.60;99.90
2997;DHT22;1508;48.744;9.110;2022-10-04T02:18:21;6.60;99.90
2997;DHT22;1508;48.744;9.110;2022-10-04T02:21:09;6.50;99.90
2997;DHT22;1508;48.744;9.110;2022-10-04T02:23:56;6.50;99.90
2997;DHT22;1508;48.744;9.110;2022-10-04T02:26:47;6.50;99.90
2997;DHT22;1508;48.744;9.110;2022-10-04T02:29:33;6.50;99.90
2997;DHT22;1508;48.744;9.110;2022-10-04T02:32:19;6.50;99.90
2997;DHT22;1508;48.744;9.110;2022-10-04T02:35:05;6.50;99.90
2997;DHT22;1508;48.744;9.110;2022-10-04T02:38:16;6.60;99.90
2997;DHT22;1508;48.744;9.110;2022-10-04T02:43:56;6.50;99.90
2997;DHT22;1508;48.744;9.110;2022-10-04T02:50:07;6.50;99.90
2997;DHT22;1508;48.744;9.110;2022-10-04T02:53:23;6.50;99.90
2997;DHT22;1508;48.744;9.110;2022-10-04T02:56:12;6.50;99.90
2997;DHT22;1508;48.744;9.110;2022-10-04T02:59:03;6.50;99.90
2997;DHT22;1508;48.744;9.110;2022-10-04T03:01:55;6.50;99.90
2997;DHT22;1508;48.744;9.110;2022-10-04T03:04:42;6.50;99.90
2997;DHT22;1508;48.744;9.110;2022-10-04T03:07:30;6.50;99.90
2997;DHT22;1508;48.744;9.110;2022-10-04T03:10:17;6.50;99.90
2997;DHT22;1508;48.744;9.110;2022-10-04T03:13:03;6.60;99.90
2997;DHT22;1508;48.744;9.110;2022-10-04T03:15:49;6.60;99.90
2997;DHT22;1508;48.744;9.110;2022-10-04T03:18:36;6.50;99.90
2997;DHT22;1508;48.744;9.110;2022-10-04T03:21:22;6.50;99.90
2997;DHT22;1508;48.744;9.110;2022-10-04T03:24:22;6.60;99.90
2997;DHT22;1508;48.744;9.110;2022-10-04T03:27:24;6.60;99.90
2997;DHT22;1508;48.744;9.110;2022-10-04T03:30:15;6.60;99.90
2997;DHT22;1508;48.744;9.110;2022-10-04T03:33:01;6.60;99.90
2997;DHT22;1508;48.744;9.110;2022-10-04T03:35:56;6.60;99.90
2997;DHT22;1508;48.744;9.110;2022-10-04T03:38:45;6.60;99.90
2997;DHT22;1508;48.744;9.110;2022-10-04T03:41:31;6.60;99.90
2997;DHT22;1508;48.744;9.110;2022-10-04T03:44:17;6.70;99.90
2997;DHT22;1508;48.744;9.110;2022-10-04T03:47:26;6.70;99.90
2997;DHT22;1508;48.744;9.110;2022-10-04T03:50:18;6.70;99.90
2997;DHT22;1508;48.744;9.110;2022-10-04T03:53:27;6.70;99.90
2997;DHT22;1508;48.744;9.110;2022-10-04T03:56:18;6.80;99.90
2997;DHT22;1508;48.744;9.110;2022-10-04T03:59:05;6.80;99.90
2997;DHT22;1508;48.744;9.110;2022-10-04T04:08:13;6.70;99.90
2997;DHT22;1508;48.744;9.110;2022-10-04T04:11:03;6.70;99.90
2997;DHT22;1508;48.744;9.110;2022-10-04T04:14:10;6.80;99.90
2997;DHT22;1508;48.744;9.110;2022-10-04T04:17:37;6.80;99.90
2997;DHT22;1508;48.744;9.110;2022-10-04T04:20:27;6.80;99.90
2997;DHT22;1508;48.744;9.110;2022-10-04T04:29:15;7.00;99.90
2997;DHT22;1508;48.744;9.110;2022-10-04T04:32:04;7.00;99.90
2997;DHT22;1508;48.744;9.110;2022-10-04T04:35:01;7.10;99.90
2997;DHT22;1508;48.744;9.110;2022-10-04T04:38:06;7.10;99.90
2997;DHT22;1508;48.744;9.110;2022-10-04T04:41:07;7.10;99.90
2997;DHT22;1508;48.744;9.110;2022-10-04T04:43:55;7.10;99.90
2997;DHT22;1508;48.744;9.110;2022-10-04T04:46:41;7.10;99.90
2997;DHT22;1508;48.744;9.110;2022-10-04T04:49:28;7.20;99.90
2997;DHT22;1508;48.744;9.110;2022-10-04T04:52:17;7.20;99.90
2997;DHT22;1508;48.744;9.110;2022-10-04T04:55:05;7.20;99.90
2997;DHT22;1508;48.744;9.110;2022-10-04T04:57:54;7.30;99.90
2997;DHT22;1508;48.744;9.110;2022-10-04T05:00:41;7.30;99.90
2997;DHT22;1508;48.744;9.110;2022-10-04T05:03:27;7.30;99.90
2997;DHT22;1508;48.744;9.110;2022-10-04T05:06:26;7.30;99.90
2997;DHT22;1508;48.744;9.110;2022-10-04T05:09:23;7.30;99.90
2997;DHT22;1508;48.744;9.110;2022-10-04T05:12:20;7.20;99.90
2997;DHT22;1508;48.744;9.110;2022-10-04T05:15:08;7.10;99.90
2997;DHT22;1508;48.744;9.110;2022-10-04T05:17:55;7.10;99.90
2997;DHT22;1508;48.744;9.110;2022-10-04T05:20:49;7.00;99.90
2997;DHT22;1508;48.744;9.110;2022-10-04T05:23:36;7.00;99.90
2997;DHT22;1508;48.744;9.110;2022-10-04T05:26:28;7.00;99.90
2997;DHT22;1508;48.744;9.110;2022-10-04T05:29:18;6.90;99.90
2997;DHT22;1508;48.744;9.110;2022-10-04T05:32:31;6.90;99.90
2997;DHT22;1508;48.744;9.110;2022-10-04T05:35:21;6.90;99.90
2997;DHT22;1508;48.744;9.110;2022-10-04T05:41:41;7.10;99.90
2997;DHT22;1508;48.744;9.110;2022-10-04T05:44:35;7.10;99.90
2997;DHT22;1508;48.744;9.110;2022-10-04T05:47:25;7.20;99.90
2997;DHT22;1508;48.744;9.110;2022-10-04T05:50:38;7.20;99.90
2997;DHT22;1508;48.744;9.110;2022-10-04T05:53:31;7.30;99.90
2997;DHT22;1508;48.744;9.110;2022-10-04T05:56:24;7.40;99.90
2997;DHT22;1508;48.744;9.110;2022-10-04T06:11:40;7.90;99.90
2997;DHT22;1508;48.744;9.110;2022-10-04T06:23:04;8.20;99.90
2997;DHT22;1508;48.744;9.110;2022-10-04T06:26:08;8.30;99.90
2997;DHT22;1508;48.744;9.110;2022-10-04T06:29:06;8.40;99.90
2997;DHT22;1508;48.744;9.110;2022-10-04T06:32:08;8.50;99.90
2997;DHT22;1508;48.744;9.110;2022-10-04T06:41:10;8.50;99.90
2997;DHT22;1508;48.744;9.110;2022-10-04T06:53:22;9.40;99.90
2997;DHT22;1508;48.744;9.110;2022-10-04T07:02:48;10.00;99.90
2997;DHT22;1508;48.744;9.110;2022-10-04T07:05:37;10.20;99.90
2997;DHT22;1508;48.744;9.110;2022-10-04T07:08:32;10.20;99.90
2997;DHT22;1508;48.744;9.110;2022-10-04T07:11:49;10.30;99.90
2997;DHT22;1508;48.744;9.110;2022-10-04T07:14:44;10.50;99.90
2997;DHT22;1508;48.744;9.110;2022-10-04T07:17:40;10.60;99.90
2997;DHT22;1508;48.744;9.110;2022-10-04T07:20:30;10.50;99.90
2997;DHT22;1508;48.744;9.110;2022-10-04T07:23:27;10.60;99.90
2997;DHT22;1508;48.744;9.110;2022-10-04T07:26:42;10.80;99.90
2997;DHT22;1508;48.744;9.110;2022-10-04T07:29:36;10.90;99.90
2997;DHT22;1508;48.744;9.110;2022-10-04T07:32:27;11.00;99.90
2997;DHT22;1508;48.744;9.110;2022-10-04T07:38:31;11.10;99.90
2997;DHT22;1508;48.744;9.110;2022-10-04T07:47:24;11.30;99.90
2997;DHT22;1508;48.744;9.110;2022-10-04T07:50:28;11.50;99.90
2997;DHT22;1508;48.744;9.110;2022-10-04T07:53:20;11.50;99.90
2997;DHT22;1508;48.744;9.110;2022-10-04T07:56:18;11.70;99.90
2997;DHT22;1508;48.744;9.110;2022-10-04T08:02:21;11.80;99.90
2997;DHT22;1508;48.744;9.110;2022-10-04T08:08:28;11.80;99.90
2997;DHT22;1508;48.744;9.110;2022-10-04T08:17:17;12.30;99.90
2997;DHT22;1508;48.744;9.110;2022-10-04T08:32:32;12.70;99.90
2997;DHT22;1508;48.744;9.110;2022-10-04T08:38:56;12.70;99.90
2997;DHT22;1508;48.744;9.110;2022-10-04T08:42:13;12.80;99.90
2997;DHT22;1508;48.744;9.110;2022-10-04T09:47:42;14.80;99.90
2997;DHT22;1508;48.744;9.110;2022-10-04T09:56:57;14.80;99.90
2997;DHT22;1508;48.744;9.110;2022-10-04T10:12:00;15.90;99.90
2997;DHT22;1508;48.744;9.110;2022-10-04T10:17:47;15.90;99.90
2997;DHT22;1508;48.744;9.110;2022-10-04T10:24:07;16.00;99.90
2997;DHT22;1508;48.744;9.110;2022-10-04T10:39:39;16.30;99.90
2997;DHT22;1508;48.744;9.110;2022-10-04T11:01:25;17.30;99.90
2997;DHT22;1508;48.744;9.110;2022-10-04T11:07:45;17.10;99.90
2997;DHT22;1508;48.744;9.110;2022-10-04T11:24:25;18.20;99.90
2997;DHT22;1508;48.744;9.110;2022-10-04T11:27:25;18.40;99.90
2997;DHT22;1508;48.744;9.110;2022-10-04T11:30:24;18.40;99.90
2997;DHT22;1508;48.744;9.110;2022-10-04T11:46:06;18.90;99.90
2997;DHT22;1508;48.744;9.110;2022-10-04T12:02:12;18.90;99.90
2997;DHT22;1508;48.744;9.110;2022-10-04T12:05:25;19.00;99.90
2997;DHT22;1508;48.744;9.110;2022-10-04T12:08:44;19.20;99.90
2997;DHT22;1508;48.744;9.110;2022-10-04T12:27:02;19.70;99.90
2997;DHT22;1508;48.744;9.110;2022-10-04T12:30:28;19.90;99.90
2997;DHT22;1508;48.744;9.110;2022-10-04T12:33:31;20.10;99.90
2997;DHT22;1508;48.744;9.110;2022-10-04T12:40:14;19.60;99.90
2997;DHT22;1508;48.744;9.110;2022-10-04T12:49:51;20.00;99.90
2997;DHT22;1508;48.744;9.110;2022-10-04T12:53:05;19.80;99.90
2997;DHT22;1508;48.744;9.110;2022-10-04T12:56:10;19.90;99.90
2997;DHT22;1508;48.744;9.110;2022-10-04T13:02:29;19.60;99.90
2997;DHT22;1508;48.744;9.110;2022-10-04T13:17:46;19.70;99.90
2997;DHT22;1508;48.744;9.110;2022-10-04T13:20:57;19.70;99.90
2997;DHT22;1508;48.744;9.110;2022-10-04T13:24:03;19.70;99.90
2997;DHT22;1508;48.744;9.110;2022-10-04T13:27:00;19.70;99.90
2997;DHT22;1508;48.744;9.110;2022-10-04T13:32:59;19.70;99.90
2997;DHT22;1508;48.744;9.110;2022-10-04T13:51:54;19.30;99.90
2997;DHT22;1508;48.744;9.110;2022-10-04T13:54:48;19.50;99.90
2997;DHT22;1508;48.744;9.110;2022-10-04T14:00:47;19.60;99.90
2997;DHT22;1508;48.744;9.110;2022-10-04T14:03:49;19.70;99.90
2997;DHT22;1508;48.744;9.110;2022-10-04T14:10:11;19.70;99.90
2997;DHT22;1508;48.744;9.110;2022-10-04T14:16:36;19.80;99.90
2997;DHT22;1508;48.744;9.110;2022-10-04T14:19:55;19.90;99.90
2997;DHT22;1508;48.744;9.110;2022-10-04T14:23:24;20.00;99.90
2997;DHT22;1508;48.744;9.110;2022-10-04T14:36:45;19.80;99.90
2997;DHT22;1508;48.744;9.110;2022-10-04T15:01:28;19.80;99.90
2997;DHT22;1508;48.744;9.110;2022-10-04T15:04:55;19.80;99.90
2997;DHT22;1508;48.744;9.110;2022-10-04T15:07:46;19.70;99.90
2997;DHT22;1508;48.744;9.110;2022-10-04T15:10:35;19.60;99.90
2997;DHT22;1508;48.744;9.110;2022-10-04T15:13:56;19.60;99.90
2997;DHT22;1508;48.744;9.110;2022-10-04T15:16:51;19.50;99.90
2997;DHT22;1508;48.744;9.110;2022-10-04T15:25:55;19.50;99.90
2997;DHT22;1508;48.744;9.110;2022-10-04T15:37:58;19.20;99.90
2997;DHT22;1508;48.744;9.110;2022-10-04T15:41:01;19.10;99.90
2997;DHT22;1508;48.744;9.110;2022-10-04T15:53:10;18.70;99.90
2997;DHT22;1508;48.744;9.110;2022-10-04T16:02:50;18.30;99.90
2997;DHT22;1508;48.744;9.110;2022-10-04T16:05:45;18.10;99.90
2997;DHT22;1508;48.744;9.110;2022-10-04T16:09:07;17.90;99.90
2997;DHT22;1508;48.744;9.110;2022-10-04T16:15:30;17.60;99.90
2997;DHT22;1508;48.744;9.110;2022-10-04T16:27:43;17.10;99.90
2997;DHT22;1508;48.744;9.110;2022-10-04T16:30:38;17.00;99.90
2997;DHT22;1508;48.744;9.110;2022-10-04T16:36:57;16.80;99.90
2997;DHT22;1508;48.744;9.110;2022-10-04T16:48:59;16.40;99.90
2997;DHT22;1508;48.744;9.110;2022-10-04T16:51:56;16.20;99.90
2997;DHT22;1508;48.744;9.110;2022-10-04T16:55:03;16.10;99.90
2997;DHT22;1508;48.744;9.110;2022-10-04T17:01:38;15.80;99.90
2997;DHT22;1508;48.744;9.110;2022-10-04T17:13:51;15.00;99.90
2997;DHT22;1508;48.744;9.110;2022-10-04T17:20:10;14.80;99.90
2997;DHT22;1508;48.744;9.110;2022-10-04T17:23:07;14.50;99.90
2997;DHT22;1508;48.744;9.110;2022-10-04T17:29:46;14.50;99.90
2997;DHT22;1508;48.744;9.110;2022-10-04T17:39:21;14.10;99.90
2997;DHT22;1508;48.744;9.110;2022-10-04T17:45:41;14.10;99.90
2997;DHT22;1508;48.744;9.110;2022-10-04T17:48:38;14.00;99.90
2997;DHT22;1508;48.744;9.110;2022-10-04T18:00:59;14.00;99.90
2997;DHT22;1508;48.744;9.110;2022-10-04T18:03:51;14.00;99.90
2997;DHT22;1508;48.744;9.110;2022-10-04T18:09:44;14.00;99.90
2997;DHT22;1508;48.744;9.110;2022-10-04T18:12:37;14.00;99.90
2997;DHT22;1508;48.744;9.110;2022-10-04T18:15:33;14.00;99.90
2997;DHT22;1508;48.744;9.110;2022-10-04T18:18:26;14.00;99.90
2997;DHT22;1508;48.744;9.110;2022-10-04T18:27:09;13.90;99.90
2997;DHT22;1508;48.744;9.110;2022-10-04T18:30:14;13.80;99.90
2997;DHT22;1508;48.744;9.110;2022-10-04T18:33:00;13.80;99.90
2997;DHT22;1508;48.744;9.110;2022-10-04T18:38:41;13.80;99.90
2997;DHT22;1508;48.744;9.110;2022-10-04T18:41:28;13.80;99.90
2997;DHT22;1508;48.744;9.110;2022-10-04T18:44:28;13.80;99.90
2997;DHT22;1508;48.744;9.110;2022-10-04T18:47:34;13.80;99.90
2997;DHT22;1508;48.744;9.110;2022-10-04T18:50:36;13.70;99.90
2997;DHT22;1508;48.744;9.110;2022-10-04T18:53:42;13.60;99.90
2997;DHT22;1508;48.744;9.110;2022-10-04T18:56:30;13.60;99.90
2997;DHT22;1508;48.744;9.110;2022-10-04T19:00:05;13.60;99.90
2997;DHT22;1508;48.744;9.110;2022-10-04T19:03:14;13.50;99.90
2997;DHT22;1508;48.744;9.110;2022-10-04T19:06:15;13.40;99.90
2997;DHT22;1508;48.744;9.110;2022-10-04T19:10:14;13.30;99.90
2997;DHT22;1508;48.744;9.110;2022-10-04T19:12:39;13.30;99.90
2997;DHT22;1508;48.744;9.110;2022-10-04T19:21:37;13.00;99.90
2997;DHT22;1508;48.744;9.110;2022-10-04T19:30:46;12.90;99.90
2997;DHT22;1508;48.744;9.110;2022-10-04T19:34:07;12.90;99.90
2997;DHT22;1508;48.744;9.110;2022-10-04T19:36:57;12.90;99.90
2997;DHT22;1508;48.744;9.110;2022-10-04T19:43:19;12.90;99.90
2997;DHT22;1508;48.744;9.110;2022-10-04T19:49:17;12.90;99.90
2997;DHT22;1508;48.744;9.110;2022-10-04T19:58:39;12.80;99.90
2997;DHT22;1508;48.744;9.110;2022-10-04T20:01:25;12.80;99.90
2997;DHT22;1508;48.744;9.110;2022-10-04T20:04:15;12.80;99.90
2997;DHT22;1508;48.744;9.110;2022-10-04T20:07:25;12.70;99.90
2997;DHT22;1508;48.744;9.110;2022-10-04T20:13:14;12.70;99.90
2997;DHT22;1508;48.744;9.110;2022-10-04T20:16:01;12.70;99.90
2997;DHT22;1508;48.744;9.110;2022-10-04T20:18:56;12.70;99.90
2997;DHT22;1508;48.744;9.110;2022-10-04T20:21:42;12.70;99.90
2997;DHT22;1508;48.744;9.110;2022-10-04T20:30:12;12.60;99.90
2997;DHT22;1508;48.744;9.110;2022-10-04T20:32:58;12.50;99.90
2997;DHT22;1508;48.744;9.110;2022-10-04T20:38:55;12.50;99.90
2997;DHT22;1508;48.744;9.110;2022-10-04T20:41:42;12.40;99.90
2997;DHT22;1508;48.744;9.110;2022-10-04T20:44:47;12.40;99.90
2997;DHT22;1508;48.744;9.110;2022-10-04T20:47:44;12.30;99.90
2997;DHT22;1508;48.744;9.110;2022-10-04T20:50:34;12.30;99.90
2997;DHT22;1508;48.744;9.110;2022-10-04T20:53:26;12.20;99.90
2997;DHT22;1508;48.744;9.110;2022-10-04T20:56:31;12.20;99.90
2997;DHT22;1508;48.744;9.110;2022-10-04T20:59:17;12.10;99.90
2997;DHT22;1508;48.744;9.110;2022-10-04T21:02:03;12.10;99.90
2997;DHT22;1508;48.744;9.110;2022-10-04T21:04:49;12.10;99.90
2997;DHT22;1508;48.744;9.110;2022-10-04T21:07:35;12.10;99.90
2997;DHT22;1508;48.744;9.110;2022-10-04T21:10:21;12.20;99.90
2997;DHT22;1508;48.744;9.110;2022-10-04T21:16:41;12.10;99.90
2997;DHT22;1508;48.744;9.110;2022-10-04T21:25:30;12.20;99.90
2997;DHT22;1508;48.744;9.110;2022-10-04T21:28:31;12.20;99.90
2997;DHT22;1508;48.744;9.110;2022-10-04T21:31:17;12.20;99.90
2997;DHT22;1508;48.744;9.110;2022-10-04T21:34:02;12.10;99.90
2997;DHT22;1508;48.744;9.110;2022-10-04T21:36:48;12.10;99.90
2997;DHT22;1508;48.744;9.110;2022-10-04T21:39:34;12.10;99.90
2997;DHT22;1508;48.744;9.110;2022-10-04T21:42:20;12.10;99.90
2997;DHT22;1508;48.744;9.110;2022-10-04T21:45:06;12.00;99.90
2997;DHT22;1508;48.744;9.110;2022-10-04T21:47:52;12.00;99.90
2997;DHT22;1508;48.744;9.110;2022-10-04T21:50:38;11.90;99.90
2997;DHT22;1508;48.744;9.110;2022-10-04T21:53:24;11.90;99.90
2997;DHT22;1508;48.744;9.110;2022-10-04T21:56:10;11.80;99.90
2997;DHT22;1508;48.744;9.110;2022-10-04T21:58:56;11.80;99.90
2997;DHT22;1508;48.744;9.110;2022-10-04T22:01:41;11.70;99.90
2997;DHT22;1508;48.744;9.110;2022-10-04T22:04:27;11.70;99.90
2997;DHT22;1508;48.744;9.110;2022-10-04T22:07:13;11.50;99.90
2997;DHT22;1508;48.744;9.110;2022-10-04T22:09:59;11.50;99.90
2997;DHT22;1508;48.744;9.110;2022-10-04T22:12:45;11.40;99.90
2997;DHT22;1508;48.744;9.110;2022-10-04T22:15:30;11.30;99.90
2997;DHT22;1508;48.744;9.110;2022-10-04T22:18:16;11.30;99.90
2997;DHT22;1508;48.744;9.110;2022-10-04T22:21:02;11.20;99.90
2997;DHT22;1508;48.744;9.110;2022-10-04T22:23:48;11.10;99.90
2997;DHT22;1508;48.744;9.110;2022-10-04T22:26:34;11.10;99.90
2997;DHT22;1508;48.744;9.110;2022-10-04T22:29:20;11.00;99.90
2997;DHT22;1508;48.744;9.110;2022-10-04T22:32:20;11.00;99.90
2997;DHT22;1508;48.744;9.110;2022-10-04T22:35:12;10.90;99.90
2997;DHT22;1508;48.744;9.110;2022-10-04T22:37:58;10.80;99.90
2997;DHT22;1508;48.744;9.110;2022-10-04T22:40:44;10.70;99.90
2997;DHT22;1508;48.744;9.110;2022-10-04T22:43:30;10.70;99.90
2997;DHT22;1508;48.744;9.110;2022-10-04T22:46:18;10.70;99.90
2997;DHT22;1508;48.744;9.110;2022-10-04T22:49:15;10.60;99.90
2997;DHT22;1508;48.744;9.110;2022-10-04T22:52:10;10.60;99.90
2997;DHT22;1508;48.744;9.110;2022-10-04T22:55:00;10.60;99.90
2997;DHT22;1508;48.744;9.110;2022-10-04T22:57:46;10.50;99.90
2997;DHT22;1508;48.744;9.110;2022-10-04T23:00:32;10.50;99.90
2997;DHT22;1508;48.744;9.110;2022-10-04T23:03:28;10.50;99.90
2997;DHT22;1508;48.744;9.110;2022-10-04T23:06:14;10.50;99.90
2997;DHT22;1508;48.744;9.110;2022-10-04T23:09:00;10.60;99.90
2997;DHT22;1508;48.744;9.110;2022-10-04T23:11:46;10.50;99.90
2997;DHT22;1508;48.744;9.110;2022-10-04T23:14:37;10.60;99.90
2997;DHT22;1508;48.744;9.110;2022-10-04T23:17:26;10.60;99.90
2997;DHT22;1508;48.744;9.110;2022-10-04T23:20:15;10.60;99.90
2997;DHT22;1508;48.744;9.110;2022-10-04T23:23:04;10.50;99.90
2997;DHT22;1508;48.744;9.110;2022-10-04T23:25:54;10.50;99.90
2997;DHT22;1508;48.744;9.110;2022-10-04T23:28:40;10.50;99.90
2997;DHT22;1508;48.744;9.110;2022-10-04T23:31:26;10.50;99.90
2997;DHT22;1508;48.744;9.110;2022-10-04T23:34:16;10.50;99.90
2997;DHT22;1508;48.744;9.110;2022-10-04T23:37:15;10.50;99.90
2997;DHT22;1508;48.744;9.110;2022-10-04T23:40:02;10.50;99.90
2997;DHT22;1508;48.744;9.110;2022-10-04T23:42:51;10.50;99.90
2997;DHT22;1508;48.744;9.110;2022-10-04T23:45:38;10.50;99.90
2997;DHT22;1508;48.744;9.110;2022-10-04T23:48:25;10.50;99.90
2997;DHT22;1508;48.744;9.110;2022-10-04T23:51:16;10.40;99.90
2997;DHT22;1508;48.744;9.110;2022-10-04T23:54:07;10.40;99.90
2997;DHT22;1508;48.744;9.110;2022-10-04T23:56:54;10.40;99.90
2997;DHT22;1508;48.744;9.110;2022-10-04T23:59:39;10.30;99.90
